Time;durP1;ratioP1;P1;durP2;ratioP2;P2;SDS_P1;SDS_P2;PMS_P1;PMS_P2;Temp;Humidity;BMP_temperature;BMP_pressure;BME280_temperature;BME280_humidity;BME280_pressure;Samples;Min_cycle;Max_cycle;Signal;HPM_P1;HPM_P2
2021/08/06 00:05:54;;;;;;;0.30;0.30;;;24.40;99.90;;;;;;20199389;29;20195;-74
2021/08/06 00:15:59;;;;;;;0.40;0.40;;;24.50;99.90;;;;;;20216630;29;20234;-74
2021/08/06 00:26:03;;;;;;;0.80;0.32;;;24.30;99.90;;;;;;20254260;29;20237;-74
2021/08/06 00:36:08;;;;;;;1.30;1.08;;;24.20;99.90;;;;;;20184616;29;20226;-74
2021/08/06 00:46:15;;;;;;;0.40;0.40;;;23.90;99.90;;;;;;20310566;29;20202;-73
2021/08/06 00:56:21;;;;;;;0.28;0.20;;;23.80;99.90;;;;;;20278059;29;20423;-73
2021/08/06 01:06:34;;;;;;;0.52;0.52;;;23.70;99.90;;;;;;20292411;29;20209;-74
2021/08/06 01:16:40;;;;;;;0.45;0.45;;;23.50;99.90;;;;;;20300888;29;20229;-75
2021/08/06 01:26:47;;;;;;;0.68;0.68;;;23.50;99.90;;;;;;20311603;29;20235;-74
2021/08/06 01:36:50;;;;;;;0.30;0.30;;;23.40;99.90;;;;;;20261797;29;20230;-75
2021/08/06 01:47:03;;;;;;;1.00;0.95;;;23.60;99.90;;;;;;20229406;29;20995;-75
2021/08/06 01:57:09;;;;;;;0.20;0.10;;;23.70;99.90;;;;;;20230181;29;20245;-73
2021/08/06 02:07:15;;;;;;;0.45;0.45;;;23.60;99.90;;;;;;20259394;29;20599;-73
2021/08/06 02:17:22;;;;;;;0.65;0.65;;;23.40;99.90;;;;;;20307716;29;20231;-76
2021/08/06 02:27:28;;;;;;;0.30;0.22;;;23.30;99.90;;;;;;20288029;29;20693;-74
2021/08/06 02:37:36;;;;;;;2.63;1.23;;;23.30;99.90;;;;;;20254830;29;20694;-74
2021/08/06 02:47:42;;;;;;;0.65;0.60;;;23.10;99.90;;;;;;20242029;29;20211;-75
2021/08/06 02:57:47;;;;;;;0.27;0.20;;;23.10;99.90;;;;;;20238863;29;20321;-76
2021/08/06 03:07:54;;;;;;;1.10;0.57;;;23.20;99.90;;;;;;20262855;29;20656;-76
2021/08/06 03:17:57;;;;;;;1.42;1.25;;;23.90;99.90;;;;;;20301758;29;20226;-74
2021/08/06 03:28:03;;;;;;;2.92;1.13;;;23.90;99.90;;;;;;20317855;29;20718;-76
2021/08/06 03:38:14;;;;;;;0.30;0.30;;;24.00;99.90;;;;;;20258155;29;20226;-75
2021/08/06 03:48:20;;;;;;;1.70;0.90;;;24.00;99.90;;;;;;20227351;29;20205;-74
2021/08/06 03:58:23;;;;;;;0.93;0.82;;;24.00;99.90;;;;;;20222591;29;20467;-73
2021/08/06 04:08:28;;;;;;;0.57;0.57;;;24.00;99.90;;;;;;20219432;29;20202;-73
2021/08/06 04:18:32;;;;;;;0.30;0.30;;;24.10;99.90;;;;;;20218986;29;20397;-75
2021/08/06 04:28:38;;;;;;;0.47;0.47;;;24.10;99.90;;;;;;20217254;29;20370;-74
2021/08/06 04:38:42;;;;;;;1.30;0.60;;;24.20;99.90;;;;;;20218988;29;20226;-77
2021/08/06 04:48:47;;;;;;;1.35;0.43;;;24.10;99.90;;;;;;20216540;29;20216;-77
2021/08/06 04:58:51;;;;;;;0.30;0.30;;;24.00;99.90;;;;;;20200901;29;20225;-77
2021/08/06 05:08:56;;;;;;;1.50;0.98;;;23.90;99.90;;;;;;20256659;29;20201;-76
2021/08/06 05:18:59;;;;;;;0.88;0.75;;;23.90;99.90;;;;;;20294561;29;20230;-76
2021/08/06 05:29:04;;;;;;;0.40;0.40;;;23.80;99.90;;;;;;20275714;29;20218;-74
2021/08/06 05:39:08;;;;;;;0.50;0.50;;;24.00;99.90;;;;;;20294259;29;20632;-78
2021/08/06 05:49:14;;;;;;;0.75;0.70;;;24.00;99.90;;;;;;20294045;29;20821;-75
2021/08/06 05:59:17;;;;;;;1.52;0.55;;;23.90;99.90;;;;;;20294134;29;20240;-73
2021/08/06 06:09:22;;;;;;;0.68;0.68;;;24.00;99.90;;;;;;20260270;29;20213;-70
2021/08/06 06:19:26;;;;;;;3.35;1.02;;;24.20;99.90;;;;;;20230415;29;20241;-75
2021/08/06 06:29:31;;;;;;;0.20;0.20;;;24.40;99.90;;;;;;20227275;29;20226;-81
2021/08/06 06:39:34;;;;;;;1.05;0.93;;;24.60;99.90;;;;;;20225355;29;20241;-78
2021/08/06 06:49:39;;;;;;;1.08;0.82;;;24.70;99.90;;;;;;20223713;29;20549;-73
2021/08/06 06:59:43;;;;;;;1.67;0.60;;;25.40;99.90;;;;;;20222836;29;20230;-76
2021/08/06 07:09:48;;;;;;;0.47;0.47;;;25.60;99.90;;;;;;20270179;29;20221;-77
2021/08/06 07:19:52;;;;;;;2.10;0.50;;;25.80;99.90;;;;;;20300538;29;20316;-77
2021/08/06 07:29:57;;;;;;;0.45;0.45;;;25.60;99.90;;;;;;20302680;29;20514;-75
2021/08/06 07:40:01;;;;;;;1.35;0.63;;;25.70;99.90;;;;;;20296608;29;20219;-76
2021/08/06 07:50:07;;;;;;;1.83;0.45;;;25.80;99.90;;;;;;20219934;29;20351;-77
2021/08/06 08:00:11;;;;;;;0.30;0.30;;;25.90;99.90;;;;;;20220886;29;20645;-78
2021/08/06 08:10:16;;;;;;;0.20;0.00;;;26.00;99.90;;;;;;20276208;29;20581;-81
2021/08/06 08:20:23;;;;;;;0.20;0.15;;;26.10;99.90;;;;;;20295525;29;20580;-75
2021/08/06 08:30:29;;;;;;;0.30;0.30;;;26.20;99.90;;;;;;20251815;29;20223;-80
2021/08/06 08:40:55;;;;;;;1.05;0.80;;;26.20;99.90;;;;;;20218208;29;20311;-77
2021/08/06 08:51:22;;;;;;;1.20;0.40;;;26.40;99.90;;;;;;20219983;29;20233;-75
2021/08/06 09:01:29;;;;;;;0.57;0.45;;;26.50;99.90;;;;;;20217486;29;20207;-79
2021/08/06 09:11:36;;;;;;;2.33;0.55;;;26.60;99.90;;;;;;20218687;29;20222;-77
2021/08/06 09:22:27;;;;;;;10.65;2.38;;;26.80;99.90;;;;;;20203043;29;20616;-77
2021/08/06 09:32:52;;;;;;;2.38;0.90;;;27.50;99.90;;;;;;20217250;29;20244;-77
2021/08/06 09:43:19;;;;;;;0.45;0.45;;;28.00;99.90;;;;;;20196798;29;20213;-76
2021/08/06 09:53:27;;;;;;;0.40;0.32;;;28.10;99.90;;;;;;20256707;29;20337;-79
2021/08/06 10:03:33;;;;;;;0.82;0.82;;;28.40;99.90;;;;;;20313471;29;20205;-78
2021/08/06 10:13:39;;;;;;;0.30;0.30;;;28.10;99.90;;;;;;20310620;29;20226;-83
2021/08/06 10:23:43;;;;;;;0.80;0.40;;;27.90;99.90;;;;;;20309190;29;20394;-78
2021/08/06 10:34:09;;;;;;;0.30;0.20;;;28.10;99.90;;;;;;20288703;29;20325;-74
2021/08/06 10:44:13;;;;;;;0.82;0.77;;;28.90;99.90;;;;;;20313516;29;20229;-82
2021/08/06 10:54:37;;;;;;;0.40;0.28;;;28.80;99.90;;;;;;20218272;29;20233;-83
2021/08/06 11:04:56;;;;;;;0.60;0.60;;;28.40;99.90;;;;;;20238366;29;20677;-81
2021/08/06 11:15:10;;;;;;;1.00;0.50;;;28.30;99.90;;;;;;20285619;29;20256;-78
2021/08/06 11:25:21;;;;;;;0.50;0.50;;;28.30;99.90;;;;;;20303798;29;20226;-90
2021/08/06 11:35:27;;;;;;;0.40;0.40;;;29.20;99.90;;;;;;20302288;29;20237;-79
2021/08/06 11:45:31;;;;;;;0.50;0.45;;;30.00;99.90;;;;;;20280790;29;20191;-69
2021/08/06 11:55:36;;;;;;;8.43;0.68;;;30.20;99.90;;;;;;20225339;29;20234;-81
2021/08/06 12:05:42;;;;;;;0.20;0.13;;;30.20;99.90;;;;;;20218962;29;20211;-81
2021/08/06 12:15:47;;;;;;;1.20;1.13;;;30.30;99.90;;;;;;20225213;29;20234;-80
2021/08/06 12:26:19;;;;;;;0.50;0.50;;;30.20;99.90;;;;;;20219900;29;20230;-81
2021/08/06 12:36:24;;;;;;;0.40;0.20;;;30.00;99.90;;;;;;20200503;29;20707;-71
2021/08/06 12:46:28;;;;;;;3.50;0.47;;;30.70;99.90;;;;;;20221767;29;20202;-82
2021/08/06 12:56:54;;;;;;;3.22;0.32;;;31.00;99.90;;;;;;20220252;29;20616;-81
2021/08/06 13:06:58;;;;;;;1.48;0.82;;;30.40;99.90;;;;;;20234851;29;20198;-77
2021/08/06 13:17:03;;;;;;;4.22;0.80;;;32.10;99.90;;;;;;20234828;29;20543;-80
2021/08/06 13:27:07;;;;;;;0.80;0.50;;;33.00;99.90;;;;;;20233011;29;20250;-74
2021/08/06 13:37:12;;;;;;;1.20;0.55;;;32.90;99.90;;;;;;20249211;29;20300;-78
2021/08/06 13:47:16;;;;;;;0.20;0.13;;;33.20;99.90;;;;;;20230893;29;20556;-79
2021/08/06 13:57:31;;;;;;;;;;;;;;;;;;;;;
2021/08/06 14:07:44;;;;;;;0.38;0.20;;;31.90;99.90;;;;;;20364102;23;20242;-78
2021/08/06 14:17:53;;;;;;;0.77;0.77;;;32.60;99.90;;;;;;20439612;29;20244;-78
2021/08/06 14:28:04;;;;;;;0.88;0.50;;;33.70;99.90;;;;;;20482597;28;20419;-77
2021/08/06 14:38:51;;;;;;;0.63;0.40;;;33.60;99.90;;;;;;20542240;28;20234;-77
2021/08/06 14:48:59;;;;;;;0.25;0.10;;;32.00;99.90;;;;;;20547789;28;20317;-80
2021/08/06 15:10:05;;;;;;;0.88;0.30;;;33.20;99.90;;;;;;20637726;23;20238;-81
2021/08/06 15:20:30;;;;;;;1.98;0.47;;;32.70;99.90;;;;;;20697361;28;20233;-75
2021/08/06 15:30:37;;;;;;;1.17;0.73;;;33.10;99.90;;;;;;20696976;28;20276;-74
2021/08/06 15:40:43;;;;;;;0.45;0.45;;;33.10;99.90;;;;;;20696675;28;20242;-78
2021/08/06 15:50:46;;;;;;;0.30;0.30;;;32.90;99.90;;;;;;20696716;28;20514;-78
2021/08/06 16:00:53;;;;;;;1.48;0.85;;;31.60;99.90;;;;;;20698299;28;21001;-79
2021/08/06 16:11:01;;;;;;;0.60;0.60;;;31.50;99.90;;;;;;20680666;28;20225;-80
2021/08/06 16:21:09;;;;;;;0.75;0.40;;;30.20;99.90;;;;;;20695363;28;20361;-76
2021/08/06 16:31:15;;;;;;;0.30;0.30;;;29.50;99.90;;;;;;20695096;28;20211;-78
2021/08/06 16:41:23;;;;;;;0.60;0.60;;;28.40;99.90;;;;;;20692760;28;20520;-76
2021/08/06 16:51:29;;;;;;;0.50;0.40;;;27.80;99.90;;;;;;20698868;23;20238;-78
2021/08/06 17:01:36;;;;;;;0.60;0.38;;;27.60;99.90;;;;;;20698316;28;20752;-83
2021/08/06 17:12:04;;;;;;;1.58;1.02;;;27.20;99.90;;;;;;20724390;23;20238;-79
2021/08/06 17:22:11;;;;;;;1.17;1.08;;;26.80;99.90;;;;;;20762624;28;20518;-76
2021/08/06 17:43:18;;;;;;;0.57;0.50;;;26.70;99.90;;;;;;20775668;23;20546;-77
2021/08/06 17:53:23;;;;;;;3.20;1.10;;;26.50;99.90;;;;;;20860118;23;20257;-78
2021/08/06 18:03:30;;;;;;;17.23;1.10;;;26.10;99.90;;;;;;20709923;28;21088;-78
2021/08/06 18:13:34;;;;;;;1.38;0.77;;;26.00;99.90;;;;;;20647214;23;20610;-80
2021/08/06 18:34:33;;;;;;;1.02;0.93;;;25.70;99.90;;;;;;20637269;28;20233;-78
2021/08/06 18:44:37;;;;;;;1.00;0.85;;;25.50;99.90;;;;;;20707472;28;20571;-79
2021/08/06 18:54:46;;;;;;;0.95;0.77;;;25.40;99.90;;;;;;20700323;28;20230;-78
2021/08/06 19:04:49;;;;;;;0.77;0.43;;;25.60;99.90;;;;;;20688644;28;20913;-76
2021/08/06 19:14:54;;;;;;;1.05;0.68;;;25.50;99.90;;;;;;20597772;28;20235;-78
2021/08/06 19:25:08;;;;;;;2.55;1.48;;;25.60;99.90;;;;;;20593291;28;20676;-80
2021/08/06 19:35:37;;;;;;;1.27;1.17;;;25.40;99.90;;;;;;20555544;28;20245;-76
2021/08/06 19:45:40;;;;;;;1.52;0.75;;;25.40;99.90;;;;;;20618217;28;20200;-77
2021/08/06 19:55:47;;;;;;;1.73;1.13;;;25.30;99.90;;;;;;20617235;28;20629;-75
2021/08/06 20:05:52;;;;;;;0.20;0.20;;;24.90;99.90;;;;;;20614626;28;20192;-76
2021/08/06 20:16:00;;;;;;;0.57;0.43;;;25.20;99.90;;;;;;20617264;28;20235;-78
2021/08/06 20:26:04;;;;;;;0.38;0.38;;;25.10;99.90;;;;;;20615912;28;20206;-78
2021/08/06 20:36:28;;;;;;;0.93;0.85;;;25.40;99.90;;;;;;20647192;28;20222;-76
2021/08/06 20:46:34;;;;;;;0.30;0.20;;;25.20;99.90;;;;;;20695245;28;20542;-74
2021/08/06 20:56:45;;;;;;;0.35;0.35;;;25.10;99.90;;;;;;20694162;28;20234;-78
2021/08/06 21:06:59;;;;;;;0.40;0.25;;;24.90;99.90;;;;;;20698568;23;20234;-78
2021/08/06 21:17:05;;;;;;;0.57;0.57;;;24.70;99.90;;;;;;20693059;28;20689;-77
2021/08/06 21:27:08;;;;;;;1.40;1.02;;;24.80;99.90;;;;;;20691946;28;20695;-78
2021/08/06 21:37:13;;;;;;;0.60;0.60;;;24.80;99.90;;;;;;20705197;28;20293;-78
2021/08/06 21:47:17;;;;;;;3.80;1.08;;;25.00;99.90;;;;;;20706903;28;20223;-76
2021/08/06 21:57:22;;;;;;;0.75;0.65;;;25.30;99.90;;;;;;20705707;28;20297;-74
2021/08/06 22:07:26;;;;;;;0.63;0.63;;;25.40;99.90;;;;;;20706384;28;20222;-76
2021/08/06 22:17:31;;;;;;;1.52;1.13;;;25.20;99.90;;;;;;20703259;28;20231;-78
2021/08/06 22:27:35;;;;;;;0.80;0.55;;;25.30;99.90;;;;;;20703254;28;20365;-77
2021/08/06 22:37:40;;;;;;;1.70;0.77;;;25.00;99.90;;;;;;20699550;28;20241;-77
2021/08/06 22:47:43;;;;;;;0.82;0.73;;;25.00;99.90;;;;;;20702450;28;20213;-76
2021/08/06 22:57:49;;;;;;;7.35;1.88;;;24.70;99.90;;;;;;20701013;28;20575;-78
2021/08/06 23:07:53;;;;;;;1.17;0.40;;;24.50;99.90;;;;;;20702072;28;20226;-76
2021/08/06 23:17:58;;;;;;;0.90;0.80;;;24.40;99.90;;;;;;20699710;28;20229;-76
2021/08/06 23:28:02;;;;;;;1.65;0.77;;;24.50;99.90;;;;;;20701529;28;20203;-77
2021/08/06 23:38:07;;;;;;;2.30;0.63;;;24.50;99.90;;;;;;20699603;28;20583;-73
2021/08/06 23:48:10;;;;;;;1.13;0.75;;;24.20;99.90;;;;;;20662219;28;20211;-77
2021/08/06 23:58:15;;;;;;;0.98;0.82;;;24.00;99.90;;;;;;20654033;28;20724;-74
